Hundon, Virginia
Current Conditions -  °F | °C
As of 6:52 AM on Friday 28 Nov 2014 (Local Time) from KIAD Reporting Station
Scattered Clouds Scattered Clouds  
Wind Chill: 22°   Ceiling: Unl
Heat Index: 31°   Visibility: 10mi
Dew Point: 20°   Wind: 10mph
Humidity: 64%   Direction: 290°WNW
Pressure: 30.27"   Gusts: 22mph
Location:  38.9599°N, 77.3372°W
Report Text: KIAD 281152Z 29009G19KT 10SM SCT045 SCT070 M01/M07 A3027 RMK AO2 SLP253 T10061067 10000 21011 51016 $
Loading
Personal Weather Stations






























Interactive Weather Map New forecast layout! Learn more

10-Day Weather Forecast

Advertisements
Track Severe Weather on mobile